Etusivu
METAR-TAF:

METAR-TAF

Lentoasemat :

Linköping, Ruotsi

Sotilaslentoasema

Leveyspiiri: 58-24N, Pituuspiiri: 015-31E, korkeus merenpinnasta: 93 m

Tämänhetkinen sää

Tämä raportti tehtiin 31 minuuttia sitten, kello 20.20 UTC
Tuuli 4 kn etelästä/lounaasta
Lämpötila 14°C
Kosteus 72%
Ilmanpaine 1020 hPa
Näkyvyys 10 km tai enemmän

METAR: ESCF 262020Z AUTO 20004KT 9999 NCD 14/09 Q1020

Aika: 22:51 (20:51 UTC)

Sääennuste

Tämä raportti tehtiin 16 tuntia ja 51 minuuttia sitten, kello 04.00 UTC
Ennuste voimassa 26. päivästä klo 05 UTC - 26. päivään klo 13 UTC
Tuuli 6 kn pohjoisesta
Näkyvyys 10 km tai enemmän
ei pilviä alle 1500 m:ssä eikä cumulonimbus-pilviä

TAF: ESCF 260400Z 2605/2613 35006KT CAVOK RMK MIL

Säähavainnot ja -ennusteet yli 4000 lentoasemalta (METAR- ja TAF-raportit).

Käytössä olevat sääasemat on merkitty karttaan keltaisilla ja punaisilla pisteillä.

Aseta hiiri pisteen päälle nähdäksesi sääaseman nimen.

Klikkaa sitten nähdäksesi säähavainnot ja -ennusteet.

Kartan vaihtaminen: klikkaa mustalla rastilla varustettuja vihreitä pisteitä, niin voit zoomata sisään; viivalla varustettua vihreää pistettä, niin voit zoomata ulos tai vihreitä nuolia, niin pääset viereisille kartoille.


METAR-TAF: